ADDS METAR Data INFO
IDs: Format: Raw Decoded Include TAF

Data at: 0340 UTC 19 Feb 2018

KHAE 190315Z AUTO 16013G19KT 10SM SCT046 SCT090 10/M02 A2978 RMK AO2
KHAE 190255Z AUTO 17015G25KT 10SM SCT065 SCT090 10/M03 A2979 RMK AO2
KHAE 190235Z AUTO 17013G20KT 10SM SCT055 BKN065 BKN090 10/M05 A2980 RMK AO2
KHAE 190215Z AUTO 17014G18KT 10SM SCT065 BKN090 10/M06 A2980 RMK AO2
KHAE 190155Z AUTO 15011G15KT 10SM SCT055 BKN090 10/M07 A2979 RMK AO2
KHAE 190135Z AUTO 15013G17KT 10SM CLR 10/M07 A2979 RMK AO2
KHAE 190115Z AUTO 16012G19KT 10SM CLR 10/M07 A2980 RMK AO2
KHAE 190055Z AUTO 16011KT 10SM CLR 10/M08 A2982 RMK AO2
KHAE 190035Z AUTO 16011G15KT 10SM CLR 10/M08 A2983 RMK AO2
KHAE 190015Z AUTO 17011G14KT 10SM CLR 10/M08 A2983 RMK AO2
KHAE 182355Z AUTO 16011G16KT 10SM CLR 11/M07 A2984 RMK AO2
KHAE 182335Z AUTO 15009G14KT 10SM CLR 11/M07 A2984 RMK AO2
KHAE 182315Z AUTO 16009G14KT 10SM CLR 11/M06 A2985 RMK AO2
KHAE 182255Z AUTO 14009G14KT 10SM CLR 12/M07 A2986 RMK AO2
KHAE 182235Z AUTO 16011G17KT 10SM CLR 12/M07 A2986 RMK AO2
KHAE 182215Z AUTO 15015G19KT 10SM CLR 12/M07 A2988 RMK AO2
KHAE 182155Z AUTO 16014G21KT 10SM CLR 12/M07 A2988 RMK AO2
KHAE 182135Z AUTO 16015G22KT 10SM CLR 12/M07 A2989 RMK AO2
KHAE 182115Z AUTO 16012G21KT 10SM CLR 12/M06 A2991 RMK AO2
KHAE 182055Z AUTO 16012G23KT 10SM CLR 11/M06 A2992 RMK AO2
KHAE 182035Z AUTO 17014G20KT 10SM CLR 11/M06 A2994 RMK AO2
KHAE 182015Z AUTO 15015G21KT 10SM CLR 11/M06 A2996 RMK AO2
KHAE 181955Z AUTO 17016G22KT 10SM CLR 11/M07 A2997 RMK AO2
KHAE 181935Z AUTO 15013G19KT 10SM CLR 11/M06 A2998 RMK AO2
KHAE 181915Z AUTO 16014G22KT 10SM CLR 11/M06 A3000 RMK AO2
KHAE 181855Z AUTO 17019G23KT 10SM CLR 11/M07 A3003 RMK AO2
KHAE 181835Z AUTO 16010G15KT 113V183 10SM CLR 10/M04 A3004 RMK AO2
KHAE 181815Z AUTO 16015G22KT 10SM CLR 10/M05 A3007 RMK AO2
KHAE 181755Z AUTO 17015G21KT 10SM CLR 09/M05 A3008 RMK AO2
KHAE 181735Z AUTO 16013G25KT 10SM CLR 08/M06 A3009 RMK AO2
KHAE 181715Z AUTO 17013G20KT 10SM CLR 09/M05 A3010 RMK AO2
KHAE 181655Z AUTO 16012G24KT 10SM CLR 08/M04 A3012 RMK AO2
KHAE 181635Z AUTO 17016G21KT 10SM CLR 08/M04 A3014 RMK AO2
KHAE 181615Z AUTO 15008G16KT 10SM CLR 07/M03 A3015 RMK AO2
KHAE 181555Z AUTO 16011G14KT 10SM CLR 07/M03 A3015 RMK AO2
KHAE 181535Z AUTO 16009KT 10SM CLR 05/M02 A3016 RMK AO2
KHAE 181515Z AUTO 16009KT 10SM CLR 05/M02 A3018 RMK AO2
KHAE 181455Z AUTO 14007KT 10SM CLR 04/M02 A3018 RMK AO2
KHAE 181435Z AUTO 15008KT 10SM CLR 03/M02 A3018 RMK AO2
KHAE 181415Z AUTO 16007KT 10SM CLR 02/M02 A3019 RMK AO2
KHAE 181355Z AUTO 15008KT 10SM CLR 01/M02 A3019 RMK AO2
KHAE 181335Z AUTO 15006KT 10SM CLR 01/M03 A3021 RMK AO2
KHAE 181315Z AUTO 15008KT 10SM CLR 00/M03 A3021 RMK AO2
KHAE 181255Z AUTO 16007KT 10SM CLR 00/M03 A3020 RMK AO2
KHAE 181235Z AUTO 15007KT 10SM CLR 00/M04 A3019 RMK AO2
KHAE 181215Z AUTO 15008KT 10SM CLR 00/M04 A3020 RMK AO2
KHAE 181155Z AUTO 16006KT 10SM CLR 00/M04 A3020 RMK AO2
KHAE 181135Z AUTO 16007KT 10SM CLR 00/M05 A3021 RMK AO2
KHAE 181115Z AUTO 17006KT 10SM CLR 00/M05 A3021 RMK AO2
KHAE 181055Z AUTO 16005KT 10SM CLR 01/M04 A3020 RMK AO2
KHAE 181035Z AUTO 14007KT 10SM CLR 00/M04 A3018 RMK AO2
KHAE 181015Z AUTO 14007KT 10SM CLR 00/M05 A3020 RMK AO2
KHAE 180955Z AUTO 15006KT 10SM CLR 00/M05 A3021 RMK AO2
KHAE 180935Z AUTO 15007KT 10SM CLR 00/M05 A3021 RMK AO2
KHAE 180915Z AUTO 15007KT 10SM CLR 00/M05 A3021 RMK AO2
KHAE 180855Z AUTO 17007KT 10SM CLR 00/M06 A3021 RMK AO2
KHAE 180835Z AUTO 14004KT 10SM CLR 00/M06 A3021 RMK AO2
KHAE 180815Z AUTO 15004KT 10SM CLR 00/M06 A3022 RMK AO2
KHAE 180755Z AUTO 13004KT 10SM CLR 00/M06 A3022 RMK AO2
KHAE 180735Z AUTO 00000KT 10SM CLR 00/M06 A3023 RMK AO2
KHAE 180715Z AUTO 14003KT 10SM CLR 01/M06 A3023 RMK AO2
KHAE 180655Z AUTO 12003KT 10SM CLR M01/M07 A3023 RMK AO2
KHAE 180635Z AUTO 00000KT 10SM CLR M01/M07 A3023 RMK AO2
KHAE 180615Z AUTO 00000KT 10SM CLR M01/M06 A3023 RMK AO2
KHAE 180555Z AUTO 00000KT 10SM CLR M01/M06 A3023 RMK AO2
KHAE 180535Z AUTO 00000KT 10SM CLR 00/M06 A3023 RMK AO2
KHAE 180515Z AUTO 00000KT 10SM CLR 00/M06 A3021 RMK AO2
KHAE 180455Z AUTO 17005KT 10SM CLR 01/M06 A3023 RMK AO2
KHAE 180435Z AUTO 00000KT 10SM CLR 01/M05 A3021 RMK AO2
KHAE 180415Z AUTO 00000KT 10SM CLR 00/M07 A3021 RMK AO2
KHAE 180355Z AUTO 00000KT 10SM CLR 01/M06 A3021 RMK AO2
KHAE 180335Z AUTO 00000KT 10SM CLR 01/M06 A3020 RMK AO2
KHAE 180315Z AUTO 00000KT 10SM CLR 01/M06 A3020 RMK AO2
KHAE 180255Z AUTO 00000KT 10SM CLR 01/M06 A3020 RMK AO2
KHAE 180235Z AUTO 00000KT 10SM CLR 01/M06 A3019 RMK AO2
KHAE 180215Z AUTO 27004KT 10SM CLR 03/M06 A3018 RMK AO2
KHAE 180155Z AUTO 29003KT 10SM CLR 03/M06 A3018 RMK AO2
KHAE 180135Z AUTO 00000KT 10SM CLR 02/M06 A3016 RMK AO2
KHAE 180115Z AUTO 30003KT 10SM CLR 03/M06 A3016 RMK AO2
KHAE 180055Z AUTO 30006KT 10SM CLR 03/M06 A3015 RMK AO2
KHAE 180035Z AUTO 31006KT 10SM CLR 04/M06 A3013 RMK AO2
KHAE 180015Z AUTO 31005KT 10SM CLR 04/M06 A3013 RMK AO2
KHAE 172355Z AUTO 31006KT 10SM CLR 05/M06 A3012 RMK AO2
KHAE 172335Z AUTO 31009KT 10SM CLR 06/M06 A3011 RMK AO2
KHAE 172315Z AUTO 30012G17KT 10SM CLR 07/M06 A3010 RMK AO2
KHAE 172255Z AUTO 30013G24KT 10SM CLR 07/M05 A3009 RMK AO2
KHAE 172235Z AUTO 28010G16KT 10SM CLR 08/00 A3008 RMK AO2
KHAE 172215Z AUTO 26010KT 10SM CLR 07/00 A3006 RMK AO2
KHAE 172155Z AUTO 27010KT 10SM CLR 07/00 A3005 RMK AO2
KHAE 172135Z AUTO 27011KT 10SM SCT025 SCT030 SCT036 06/00 A3005 RMK AO2
KHAE 172115Z AUTO 28011KT 10SM BKN028 06/00 A3004 RMK AO2
KHAE 172055Z AUTO 27015G20KT 10SM BKN025 BKN030 05/00 A3003 RMK AO2 P0001
KHAE 172035Z AUTO 28013KT 10SM OVC023 05/00 A3002 RMK AO2
KHAE 172015Z AUTO 28012G18KT 10SM SCT013 BKN020 OVC026 05/00 A3000 RMK AO2
KHAE 171955Z AUTO 26014G20KT 10SM BKN011 OVC019 04/01 A2998 RMK AO2
KHAE 171935Z AUTO 25013G17KT 10SM BKN008 OVC014 05/02 A2998 RMK AO2
KHAE 171915Z AUTO 24008KT 7SM OVC006 03/01 A2998 RMK AO2
KHAE 171855Z AUTO 23008KT 5SM BR OVC004 02/01 A2997 RMK AO2
KHAE 171835Z AUTO 23009KT 1 3/4SM BR OVC004 02/01 A2997 RMK AO2
KHAE 171815Z AUTO 21011G15KT 3SM UP OVC004 02/00 A2998 RMK AO2
KHAE 171755Z AUTO 19010KT 2 1/2SM UP OVC004 02/00 A2998 RMK AO2 P0001
KHAE 171735Z AUTO 19009KT 2SM UP OVC004 01/00 A3000 RMK AO2 P0001
KHAE 171715Z AUTO 19008G14KT 1 3/4SM UP OVC004 01/00 A2999 RMK AO2 P0001
KHAE 171655Z AUTO 18009KT 1 1/4SM -SN OVC006 01/00 A3000 RMK AO2
KHAE 171635Z AUTO 19011KT 3SM UP OVC006 01/00 A3001 RMK AO2
KHAE 171615Z AUTO 19010KT 1 3/4SM UP OVC008 01/M01 A3002 RMK AO2
KHAE 171555Z AUTO 19010G15KT 4SM UP OVC010 01/M01 A3002 RMK AO2